CheckWX is a tool to help pilots better visualize weather data.  It is not intended as a substitute for an official pre-flight weather briefing.

06:49:48 UTC

LGTG TAF
Tanagra Airport
Tanagra, Greece
TAF LGTG 170500Z 1706/1715 34010KT 9999 FEW025 SCT070 PROB30 TEMPO 1710/1715 4000 TSRA FEW018CB SCT025 BKN070

Jun-17@
06:00 UTC

Jun-17 @ 06:00 UTC

Jun-17@
15:00 UTC

Jun-17 @ 15:00 UTC

TAF LGTG 170500Z 1706/1715 34010KT 9999 FEW025 SCT070
Wind
  • 340° at 10 KTS
Cloud Levels
  • Few at 2,500' AGL
  • Scattered at 7,000' AGL

Jun-17@
10:00 UTC

Jun-17 @ 10:00 UTC

Jun-17@
15:00 UTC

Jun-17 @ 15:00 UTC

PROB30 TEMPO 1710/1715 4000 TSRA FEW018CB SCT025 BKN070

Temporary - 30% Likelihood

Temporary - 30% Likelihood during this time.

Conditions
Thunderstorm, Rain
Cloud Levels
  • Few at 1,800' AGL
  • Scattered at 2,500' AGL
  • Broken at 7,000' AGL